sensor_id;sensor_type;location;lat;lon;timestamp;temperature;humidity
78315;SHT31;68596;52.080;4.662;2023-06-04T00:01:58;17.47;56.83
78315;SHT31;68596;52.080;4.662;2023-06-04T00:04:42;17.41;56.85
78315;SHT31;68596;52.080;4.662;2023-06-04T00:07:26;17.39;56.92
78315;SHT31;68596;52.080;4.662;2023-06-04T00:10:10;17.34;56.74
78315;SHT31;68596;52.080;4.662;2023-06-04T00:12:56;17.31;56.49
78315;SHT31;68596;52.080;4.662;2023-06-04T00:15:40;17.33;56.25
78315;SHT31;68596;52.080;4.662;2023-06-04T00:18:24;17.30;55.98
78315;SHT31;68596;52.080;4.662;2023-06-04T00:21:08;17.29;55.84
78315;SHT31;68596;52.080;4.662;2023-06-04T00:23:52;17.26;56.22
78315;SHT31;68596;52.080;4.662;2023-06-04T00:26:37;17.24;55.89
78315;SHT31;68596;52.080;4.662;2023-06-04T00:29:21;17.19;56.34
78315;SHT31;68596;52.080;4.662;2023-06-04T00:32:05;17.15;55.84
78315;SHT31;68596;52.080;4.662;2023-06-04T00:34:51;17.10;56.05
78315;SHT31;68596;52.080;4.662;2023-06-04T00:37:35;17.09;55.88
78315;SHT31;68596;52.080;4.662;2023-06-04T00:40:20;17.07;55.73
78315;SHT31;68596;52.080;4.662;2023-06-04T00:43:04;17.05;55.80
78315;SHT31;68596;52.080;4.662;2023-06-04T00:45:49;17.00;55.99
78315;SHT31;68596;52.080;4.662;2023-06-04T00:48:34;16.97;55.74
78315;SHT31;68596;52.080;4.662;2023-06-04T00:51:21;16.97;55.74
78315;SHT31;68596;52.080;4.662;2023-06-04T00:54:06;16.95;55.59
78315;SHT31;68596;52.080;4.662;2023-06-04T00:56:52;16.92;55.68
78315;SHT31;68596;52.080;4.662;2023-06-04T00:59:40;16.90;55.82
78315;SHT31;68596;52.080;4.662;2023-06-04T01:02:27;16.83;56.14
78315;SHT31;68596;52.080;4.662;2023-06-04T01:05:30;16.79;56.09
78315;SHT31;68596;52.080;4.662;2023-06-04T01:08:18;16.73;55.96
78315;SHT31;68596;52.080;4.662;2023-06-04T01:11:02;16.71;56.09
78315;SHT31;68596;52.080;4.662;2023-06-04T01:13:46;16.65;56.18
78315;SHT31;68596;52.080;4.662;2023-06-04T01:17:20;16.64;56.04
78315;SHT31;68596;52.080;4.662;2023-06-04T01:25:58;16.52;56.71
78315;SHT31;68596;52.080;4.662;2023-06-04T01:28:46;16.52;56.72
78315;SHT31;68596;52.080;4.662;2023-06-04T01:31:31;16.48;56.48
78315;SHT31;68596;52.080;4.662;2023-06-04T01:34:16;16.47;56.83
78315;SHT31;68596;52.080;4.662;2023-06-04T01:37:00;16.44;56.53
78315;SHT31;68596;52.080;4.662;2023-06-04T01:39:44;16.42;56.42
78315;SHT31;68596;52.080;4.662;2023-06-04T01:42:29;16.38;56.27
78315;SHT31;68596;52.080;4.662;2023-06-04T01:45:13;16.35;56.36
78315;SHT31;68596;52.080;4.662;2023-06-04T01:48:00;16.35;56.48
78315;SHT31;68596;52.080;4.662;2023-06-04T01:50:44;16.32;56.50
78315;SHT31;68596;52.080;4.662;2023-06-04T01:53:28;16.29;56.52
78315;SHT31;68596;52.080;4.662;2023-06-04T01:56:12;16.26;56.47
78315;SHT31;68596;52.080;4.662;2023-06-04T01:58:58;16.24;56.35
78315;SHT31;68596;52.080;4.662;2023-06-04T02:01:43;16.21;56.15
78315;SHT31;68596;52.080;4.662;2023-06-04T02:04:27;16.21;56.16
78315;SHT31;68596;52.080;4.662;2023-06-04T02:07:11;16.18;56.14
78315;SHT31;68596;52.080;4.662;2023-06-04T02:09:57;16.15;56.25
78315;SHT31;68596;52.080;4.662;2023-06-04T02:13:02;16.10;56.57
78315;SHT31;68596;52.080;4.662;2023-06-04T02:15:47;16.07;56.24
78315;SHT31;68596;52.080;4.662;2023-06-04T02:18:31;16.03;56.11
78315;SHT31;68596;52.080;4.662;2023-06-04T02:21:15;16.03;56.05
78315;SHT31;68596;52.080;4.662;2023-06-04T02:23:59;15.98;56.26
78315;SHT31;68596;52.080;4.662;2023-06-04T02:26:44;15.94;56.37
78315;SHT31;68596;52.080;4.662;2023-06-04T02:29:28;15.93;56.06
78315;SHT31;68596;52.080;4.662;2023-06-04T02:32:15;15.90;56.19
78315;SHT31;68596;52.080;4.662;2023-06-04T02:34:59;15.87;56.34
78315;SHT31;68596;52.080;4.662;2023-06-04T02:37:44;15.83;56.24
78315;SHT31;68596;52.080;4.662;2023-06-04T02:40:29;15.80;56.29
78315;SHT31;68596;52.080;4.662;2023-06-04T02:43:14;15.79;56.06
78315;SHT31;68596;52.080;4.662;2023-06-04T02:45:59;15.77;56.05
78315;SHT31;68596;52.080;4.662;2023-06-04T02:48:44;15.77;56.15
78315;SHT31;68596;52.080;4.662;2023-06-04T02:51:28;15.71;56.05
78315;SHT31;68596;52.080;4.662;2023-06-04T02:54:12;15.74;55.94
78315;SHT31;68596;52.080;4.662;2023-06-04T02:56:56;15.70;55.93
78315;SHT31;68596;52.080;4.662;2023-06-04T02:59:40;15.67;55.88
78315;SHT31;68596;52.080;4.662;2023-06-04T03:02:24;15.66;56.00
78315;SHT31;68596;52.080;4.662;2023-06-04T03:05:12;15.63;55.99
78315;SHT31;68596;52.080;4.662;2023-06-04T03:07:56;15.59;56.10
78315;SHT31;68596;52.080;4.662;2023-06-04T03:10:42;15.56;56.43
78315;SHT31;68596;52.080;4.662;2023-06-04T03:13:26;15.53;56.38
78315;SHT31;68596;52.080;4.662;2023-06-04T03:16:11;15.50;56.26
78315;SHT31;68596;52.080;4.662;2023-06-04T03:18:55;15.49;56.17
78315;SHT31;68596;52.080;4.662;2023-06-04T03:21:40;15.46;56.09
78315;SHT31;68596;52.080;4.662;2023-06-04T03:24:24;15.44;56.18
78315;SHT31;68596;52.080;4.662;2023-06-04T03:27:09;15.43;56.13
78315;SHT31;68596;52.080;4.662;2023-06-04T03:29:54;15.42;56.08
78315;SHT31;68596;52.080;4.662;2023-06-04T03:32:38;15.43;55.98
78315;SHT31;68596;52.080;4.662;2023-06-04T03:35:22;15.39;56.03
78315;SHT31;68596;52.080;4.662;2023-06-04T03:38:06;15.39;56.21
78315;SHT31;68596;52.080;4.662;2023-06-04T03:40:50;15.33;56.15
78315;SHT31;68596;52.080;4.662;2023-06-04T03:43:36;15.33;56.06
78315;SHT31;68596;52.080;4.662;2023-06-04T03:46:20;15.32;56.15
78315;SHT31;68596;52.080;4.662;2023-06-04T03:49:04;15.35;56.20
78315;SHT31;68596;52.080;4.662;2023-06-04T03:51:48;15.33;56.33
78315;SHT31;68596;52.080;4.662;2023-06-04T03:54:32;15.33;56.28
78315;SHT31;68596;52.080;4.662;2023-06-04T03:57:16;15.30;56.25
78315;SHT31;68596;52.080;4.662;2023-06-04T04:00:00;15.35;56.24
78315;SHT31;68596;52.080;4.662;2023-06-04T04:02:44;15.33;56.23
78315;SHT31;68596;52.080;4.662;2023-06-04T04:05:30;15.36;56.24
78315;SHT31;68596;52.080;4.662;2023-06-04T04:08:14;15.33;56.27
78315;SHT31;68596;52.080;4.662;2023-06-04T04:11:00;15.39;56.42
78315;SHT31;68596;52.080;4.662;2023-06-04T04:13:46;15.38;56.37
78315;SHT31;68596;52.080;4.662;2023-06-04T04:16:30;15.33;56.55
78315;SHT31;68596;52.080;4.662;2023-06-04T04:19:14;15.36;56.51
78315;SHT31;68596;52.080;4.662;2023-06-04T04:21:59;15.39;56.68
78315;SHT31;68596;52.080;4.662;2023-06-04T04:24:43;15.42;56.62
78315;SHT31;68596;52.080;4.662;2023-06-04T04:27:27;15.42;56.55
78315;SHT31;68596;52.080;4.662;2023-06-04T04:30:14;15.42;56.54
78315;SHT31;68596;52.080;4.662;2023-06-04T04:32:58;15.46;56.53
78315;SHT31;68596;52.080;4.662;2023-06-04T04:35:42;15.49;56.48
78315;SHT31;68596;52.080;4.662;2023-06-04T04:38:28;15.49;56.26
78315;SHT31;68596;52.080;4.662;2023-06-04T04:41:15;15.50;56.17
78315;SHT31;68596;52.080;4.662;2023-06-04T04:44:05;15.54;56.07
78315;SHT31;68596;52.080;4.662;2023-06-04T04:46:50;15.57;56.16
78315;SHT31;68596;52.080;4.662;2023-06-04T04:49:34;15.59;56.11
78315;SHT31;68596;52.080;4.662;2023-06-04T04:52:18;15.62;56.46
78315;SHT31;68596;52.080;4.662;2023-06-04T04:55:02;15.63;56.21
78315;SHT31;68596;52.080;4.662;2023-06-04T04:57:47;15.60;56.18
78315;SHT31;68596;52.080;4.662;2023-06-04T05:00:31;15.63;56.17
78315;SHT31;68596;52.080;4.662;2023-06-04T05:03:15;15.67;56.43
78315;SHT31;68596;52.080;4.662;2023-06-04T05:05:59;15.69;56.21
78315;SHT31;68596;52.080;4.662;2023-06-04T05:08:43;15.71;56.35
78315;SHT31;68596;52.080;4.662;2023-06-04T05:11:27;15.71;56.21
78315;SHT31;68596;52.080;4.662;2023-06-04T05:14:11;15.74;56.15
78315;SHT31;68596;52.080;4.662;2023-06-04T05:16:56;15.80;56.29
78315;SHT31;68596;52.080;4.662;2023-06-04T05:19:40;15.79;56.18
78315;SHT31;68596;52.080;4.662;2023-06-04T05:22:24;15.80;56.18
78315;SHT31;68596;52.080;4.662;2023-06-04T05:25:12;15.89;56.04
78315;SHT31;68596;52.080;4.662;2023-06-04T05:27:57;15.89;56.04
78315;SHT31;68596;52.080;4.662;2023-06-04T05:30:41;15.91;56.21
78315;SHT31;68596;52.080;4.662;2023-06-04T05:33:26;15.97;56.20
78315;SHT31;68596;52.080;4.662;2023-06-04T05:36:10;16.04;56.10
78315;SHT31;68596;52.080;4.662;2023-06-04T05:38:54;16.05;56.08
78315;SHT31;68596;52.080;4.662;2023-06-04T05:41:42;16.14;56.23
78315;SHT31;68596;52.080;4.662;2023-06-04T05:44:26;16.14;55.99
78315;SHT31;68596;52.080;4.662;2023-06-04T05:47:09;16.20;55.83
78315;SHT31;68596;52.080;4.662;2023-06-04T05:49:54;16.24;56.05
78315;SHT31;68596;52.080;4.662;2023-06-04T05:52:38;16.28;55.67
78315;SHT31;68596;52.080;4.662;2023-06-04T05:55:23;16.35;55.62
78315;SHT31;68596;52.080;4.662;2023-06-04T05:58:07;16.38;55.72
78315;SHT31;68596;52.080;4.662;2023-06-04T06:00:51;16.44;55.57
78315;SHT31;68596;52.080;4.662;2023-06-04T06:03:35;16.49;55.43
78315;SHT31;68596;52.080;4.662;2023-06-04T06:06:20;16.54;55.50
78315;SHT31;68596;52.080;4.662;2023-06-04T06:09:04;16.56;55.14
78315;SHT31;68596;52.080;4.662;2023-06-04T06:11:49;16.62;54.97
78315;SHT31;68596;52.080;4.662;2023-06-04T06:14:34;16.66;54.94
78315;SHT31;68596;52.080;4.662;2023-06-04T06:17:19;16.69;54.69
78315;SHT31;68596;52.080;4.662;2023-06-04T06:20:04;16.75;54.53
78315;SHT31;68596;52.080;4.662;2023-06-04T06:22:51;16.78;54.48
78315;SHT31;68596;52.080;4.662;2023-06-04T06:25:35;16.85;54.19
78315;SHT31;68596;52.080;4.662;2023-06-04T06:28:19;16.92;54.29
78315;SHT31;68596;52.080;4.662;2023-06-04T06:31:03;16.97;53.97
78315;SHT31;68596;52.080;4.662;2023-06-04T06:33:48;17.00;53.87
78315;SHT31;68596;52.080;4.662;2023-06-04T06:36:32;17.05;53.01
78315;SHT31;68596;52.080;4.662;2023-06-04T06:39:16;17.07;53.33
78315;SHT31;68596;52.080;4.662;2023-06-04T06:42:00;17.13;53.28
78315;SHT31;68596;52.080;4.662;2023-06-04T06:44:44;17.19;53.21
78315;SHT31;68596;52.080;4.662;2023-06-04T06:47:29;17.23;52.88
78315;SHT31;68596;52.080;4.662;2023-06-04T06:50:13;17.30;52.90
78315;SHT31;68596;52.080;4.662;2023-06-04T06:52:57;17.30;52.48
78315;SHT31;68596;52.080;4.662;2023-06-04T06:55:41;17.33;52.05
78315;SHT31;68596;52.080;4.662;2023-06-04T06:58:25;17.39;52.51
78315;SHT31;68596;52.080;4.662;2023-06-04T07:01:09;17.43;52.21
78315;SHT31;68596;52.080;4.662;2023-06-04T07:03:54;17.49;52.20
78315;SHT31;68596;52.080;4.662;2023-06-04T07:06:38;17.57;51.77
78315;SHT31;68596;52.080;4.662;2023-06-04T07:09:22;17.59;51.35
78315;SHT31;68596;52.080;4.662;2023-06-04T07:12:06;17.63;51.70
78315;SHT31;68596;52.080;4.662;2023-06-04T07:14:50;17.66;51.65
78315;SHT31;68596;52.080;4.662;2023-06-04T07:17:34;17.70;50.74
78315;SHT31;68596;52.080;4.662;2023-06-04T07:20:19;17.75;51.41
78315;SHT31;68596;52.080;4.662;2023-06-04T07:23:03;17.82;51.29
78315;SHT31;68596;52.080;4.662;2023-06-04T07:25:47;17.84;51.01
78315;SHT31;68596;52.080;4.662;2023-06-04T07:28:31;17.87;51.42
78315;SHT31;68596;52.080;4.662;2023-06-04T07:31:16;17.94;51.52
78315;SHT31;68596;52.080;4.662;2023-06-04T07:34:01;18.00;51.26
78315;SHT31;68596;52.080;4.662;2023-06-04T07:36:45;18.06;51.32
78315;SHT31;68596;52.080;4.662;2023-06-04T07:39:29;18.12;51.66
78315;SHT31;68596;52.080;4.662;2023-06-04T07:42:13;18.13;52.09
78315;SHT31;68596;52.080;4.662;2023-06-04T07:44:58;18.22;52.67
78315;SHT31;68596;52.080;4.662;2023-06-04T07:47:42;18.26;53.36
78315;SHT31;68596;52.080;4.662;2023-06-04T07:50:27;18.39;53.22
78315;SHT31;68596;52.080;4.662;2023-06-04T07:53:11;18.43;53.49
78315;SHT31;68596;52.080;4.662;2023-06-04T07:55:56;18.53;53.33
78315;SHT31;68596;52.080;4.662;2023-06-04T07:58:40;18.60;53.56
78315;SHT31;68596;52.080;4.662;2023-06-04T08:01:25;18.64;53.18
78315;SHT31;68596;52.080;4.662;2023-06-04T08:04:09;18.67;53.49
78315;SHT31;68596;52.080;4.662;2023-06-04T08:06:53;18.74;53.60
78315;SHT31;68596;52.080;4.662;2023-06-04T08:09:37;18.79;53.48
78315;SHT31;68596;52.080;4.662;2023-06-04T08:12:22;18.86;53.64
78315;SHT31;68596;52.080;4.662;2023-06-04T08:15:06;18.89;52.85
78315;SHT31;68596;52.080;4.662;2023-06-04T08:17:51;18.92;52.81
78315;SHT31;68596;52.080;4.662;2023-06-04T08:20:35;18.93;53.23
78315;SHT31;68596;52.080;4.662;2023-06-04T08:23:20;18.93;53.21
78315;SHT31;68596;52.080;4.662;2023-06-04T08:26:04;19.00;52.99
78315;SHT31;68596;52.080;4.662;2023-06-04T08:28:48;19.00;52.98
78315;SHT31;68596;52.080;4.662;2023-06-04T08:31:35;19.03;53.14
78315;SHT31;68596;52.080;4.662;2023-06-04T08:34:20;19.07;53.01
78315;SHT31;68596;52.080;4.662;2023-06-04T08:37:04;19.11;53.29
78315;SHT31;68596;52.080;4.662;2023-06-04T08:39:48;19.18;53.58
78315;SHT31;68596;52.080;4.662;2023-06-04T08:42:41;19.26;53.34
78315;SHT31;68596;52.080;4.662;2023-06-04T08:45:25;19.31;53.30
78315;SHT31;68596;52.080;4.662;2023-06-04T08:48:10;19.35;53.25
78315;SHT31;68596;52.080;4.662;2023-06-04T08:50:57;19.41;53.82
78315;SHT31;68596;52.080;4.662;2023-06-04T08:53:43;19.51;52.75
78315;SHT31;68596;52.080;4.662;2023-06-04T08:56:32;19.51;53.27
78315;SHT31;68596;52.080;4.662;2023-06-04T08:59:17;19.54;53.20
78315;SHT31;68596;52.080;4.662;2023-06-04T09:02:01;19.54;53.37
78315;SHT31;68596;52.080;4.662;2023-06-04T09:04:47;19.58;54.21
78315;SHT31;68596;52.080;4.662;2023-06-04T09:07:35;19.67;53.48
78315;SHT31;68596;52.080;4.662;2023-06-04T09:10:23;19.69;53.55
78315;SHT31;68596;52.080;4.662;2023-06-04T09:13:10;19.77;53.38
78315;SHT31;68596;52.080;4.662;2023-06-04T09:16:01;19.81;53.66
78315;SHT31;68596;52.080;4.662;2023-06-04T09:18:48;19.85;52.99
78315;SHT31;68596;52.080;4.662;2023-06-04T09:21:32;19.89;53.37
78315;SHT31;68596;52.080;4.662;2023-06-04T09:24:17;19.93;52.86
78315;SHT31;68596;52.080;4.662;2023-06-04T09:27:19;20.04;53.02
78315;SHT31;68596;52.080;4.662;2023-06-04T09:30:07;20.09;52.46
78315;SHT31;68596;52.080;4.662;2023-06-04T09:32:53;20.08;52.76
78315;SHT31;68596;52.080;4.662;2023-06-04T09:35:37;20.15;52.99
78315;SHT31;68596;52.080;4.662;2023-06-04T09:38:21;20.20;52.35
78315;SHT31;68596;52.080;4.662;2023-06-04T09:41:17;20.26;52.42
78315;SHT31;68596;52.080;4.662;2023-06-04T09:44:05;20.32;52.49
78315;SHT31;68596;52.080;4.662;2023-06-04T09:46:58;20.37;52.43
78315;SHT31;68596;52.080;4.662;2023-06-04T09:49:43;20.49;52.68
78315;SHT31;68596;52.080;4.662;2023-06-04T09:52:33;20.59;53.57
78315;SHT31;68596;52.080;4.662;2023-06-04T09:55:19;20.69;52.58
78315;SHT31;68596;52.080;4.662;2023-06-04T09:58:07;20.80;53.05
78315;SHT31;68596;52.080;4.662;2023-06-04T10:00:53;20.84;52.71
78315;SHT31;68596;52.080;4.662;2023-06-04T10:03:43;20.91;52.13
78315;SHT31;68596;52.080;4.662;2023-06-04T10:06:34;21.00;51.95
78315;SHT31;68596;52.080;4.662;2023-06-04T10:09:20;21.10;51.83
78315;SHT31;68596;52.080;4.662;2023-06-04T10:12:06;21.17;51.66
78315;SHT31;68596;52.080;4.662;2023-06-04T10:14:57;21.22;51.77
78315;SHT31;68596;52.080;4.662;2023-06-04T10:17:43;21.30;51.57
78315;SHT31;68596;52.080;4.662;2023-06-04T10:20:27;21.34;51.27
78315;SHT31;68596;52.080;4.662;2023-06-04T10:23:12;21.35;50.81
78315;SHT31;68596;52.080;4.662;2023-06-04T10:25:57;21.42;51.39
78315;SHT31;68596;52.080;4.662;2023-06-04T10:28:42;21.41;51.00
78315;SHT31;68596;52.080;4.662;2023-06-04T10:31:26;21.45;50.63
78315;SHT31;68596;52.080;4.662;2023-06-04T10:34:11;21.48;50.48
78315;SHT31;68596;52.080;4.662;2023-06-04T10:36:57;21.51;49.73
78315;SHT31;68596;52.080;4.662;2023-06-04T10:39:51;21.48;50.13
78315;SHT31;68596;52.080;4.662;2023-06-04T10:42:42;21.56;50.70
78315;SHT31;68596;52.080;4.662;2023-06-04T10:45:29;21.66;50.19
78315;SHT31;68596;52.080;4.662;2023-06-04T10:48:14;21.73;50.65
78315;SHT31;68596;52.080;4.662;2023-06-04T10:50:58;21.82;50.51
78315;SHT31;68596;52.080;4.662;2023-06-04T10:53:42;21.95;50.81
78315;SHT31;68596;52.080;4.662;2023-06-04T10:56:34;22.03;49.77
78315;SHT31;68596;52.080;4.662;2023-06-04T10:59:20;22.09;49.89
78315;SHT31;68596;52.080;4.662;2023-06-04T11:02:05;22.16;49.65
78315;SHT31;68596;52.080;4.662;2023-06-04T11:05:01;22.18;49.54
78315;SHT31;68596;52.080;4.662;2023-06-04T11:07:49;22.21;49.57
78315;SHT31;68596;52.080;4.662;2023-06-04T11:10:36;22.29;49.16
78315;SHT31;68596;52.080;4.662;2023-06-04T11:13:25;22.29;48.73
78315;SHT31;68596;52.080;4.662;2023-06-04T11:16:16;22.27;49.06
78315;SHT31;68596;52.080;4.662;2023-06-04T11:19:01;22.32;49.14
78315;SHT31;68596;52.080;4.662;2023-06-04T11:21:47;22.35;48.62
78315;SHT31;68596;52.080;4.662;2023-06-04T11:24:32;22.36;48.80
78315;SHT31;68596;52.080;4.662;2023-06-04T11:27:16;22.39;48.64
78315;SHT31;68596;52.080;4.662;2023-06-04T11:30:01;22.44;46.57
78315;SHT31;68596;52.080;4.662;2023-06-04T11:32:46;22.48;48.00
78315;SHT31;68596;52.080;4.662;2023-06-04T11:35:31;22.48;47.08
78315;SHT31;68596;52.080;4.662;2023-06-04T11:38:16;22.44;47.04
78315;SHT31;68596;52.080;4.662;2023-06-04T11:41:02;22.44;47.70
78315;SHT31;68596;52.080;4.662;2023-06-04T11:43:50;22.46;47.99
78315;SHT31;68596;52.080;4.662;2023-06-04T11:46:35;22.50;47.63
78315;SHT31;68596;52.080;4.662;2023-06-04T11:49:23;22.56;47.39
78315;SHT31;68596;52.080;4.662;2023-06-04T11:52:07;22.57;46.66
78315;SHT31;68596;52.080;4.662;2023-06-04T11:54:51;22.60;47.52
78315;SHT31;68596;52.080;4.662;2023-06-04T11:57:37;22.61;47.56
78315;SHT31;68596;52.080;4.662;2023-06-04T12:00:22;22.63;47.49
78315;SHT31;68596;52.080;4.662;2023-06-04T12:03:06;22.63;47.49
78315;SHT31;68596;52.080;4.662;2023-06-04T12:05:50;22.64;47.39
78315;SHT31;68596;52.080;4.662;2023-06-04T12:08:47;22.65;47.53
78315;SHT31;68596;52.080;4.662;2023-06-04T12:11:34;22.67;47.19
78315;SHT31;68596;52.080;4.662;2023-06-04T12:14:20;22.71;47.11
78315;SHT31;68596;52.080;4.662;2023-06-04T12:17:08;22.68;46.27
78315;SHT31;68596;52.080;4.662;2023-06-04T12:19:52;22.67;46.42
78315;SHT31;68596;52.080;4.662;2023-06-04T12:22:47;22.63;45.59
78315;SHT31;68596;52.080;4.662;2023-06-04T12:25:33;22.64;46.26
78315;SHT31;68596;52.080;4.662;2023-06-04T12:28:18;22.60;46.67
78315;SHT31;68596;52.080;4.662;2023-06-04T12:31:02;22.60;46.62
78315;SHT31;68596;52.080;4.662;2023-06-04T12:33:46;22.61;46.71
78315;SHT31;68596;52.080;4.662;2023-06-04T12:36:30;22.58;46.26
78315;SHT31;68596;52.080;4.662;2023-06-04T12:39:14;22.56;46.51
78315;SHT31;68596;52.080;4.662;2023-06-04T12:41:58;22.54;45.33
78315;SHT31;68596;52.080;4.662;2023-06-04T12:44:43;22.53;46.34
78315;SHT31;68596;52.080;4.662;2023-06-04T12:47:27;22.57;46.60
78315;SHT31;68596;52.080;4.662;2023-06-04T12:50:11;22.63;46.85
78315;SHT31;68596;52.080;4.662;2023-06-04T12:52:55;22.63;46.38
78315;SHT31;68596;52.080;4.662;2023-06-04T12:55:39;22.67;46.42
78315;SHT31;68596;52.080;4.662;2023-06-04T12:58:23;22.63;46.61
78315;SHT31;68596;52.080;4.662;2023-06-04T13:01:07;22.67;46.94
78315;SHT31;68596;52.080;4.662;2023-06-04T13:03:51;22.67;46.55
78315;SHT31;68596;52.080;4.662;2023-06-04T13:06:35;22.68;45.89
78315;SHT31;68596;52.080;4.662;2023-06-04T13:09:20;22.69;46.50
78315;SHT31;68596;52.080;4.662;2023-06-04T13:12:06;22.65;46.62
78315;SHT31;68596;52.080;4.662;2023-06-04T13:14:53;22.64;46.74
78315;SHT31;68596;52.080;4.662;2023-06-04T13:17:37;22.64;46.80
78315;SHT31;68596;52.080;4.662;2023-06-04T13:20:21;22.64;46.84
78315;SHT31;68596;52.080;4.662;2023-06-04T13:23:06;22.65;46.83
78315;SHT31;68596;52.080;4.662;2023-06-04T13:25:50;22.63;46.80
78315;SHT31;68596;52.080;4.662;2023-06-04T13:28:34;22.61;46.45
78315;SHT31;68596;52.080;4.662;2023-06-04T13:31:18;22.61;46.93
78315;SHT31;68596;52.080;4.662;2023-06-04T13:34:02;22.61;46.68
78315;SHT31;68596;52.080;4.662;2023-06-04T13:36:46;22.57;46.16
78315;SHT31;68596;52.080;4.662;2023-06-04T13:39:30;22.57;46.11
78315;SHT31;68596;52.080;4.662;2023-06-04T13:42:15;22.57;46.81
78315;SHT31;68596;52.080;4.662;2023-06-04T13:44:59;22.58;46.79
78315;SHT31;68596;52.080;4.662;2023-06-04T13:47:43;22.56;46.70
78315;SHT31;68596;52.080;4.662;2023-06-04T13:50:27;22.58;47.34
78315;SHT31;68596;52.080;4.662;2023-06-04T13:53:11;22.60;47.03
78315;SHT31;68596;52.080;4.662;2023-06-04T13:55:56;22.64;47.06
78315;SHT31;68596;52.080;4.662;2023-06-04T13:58:42;22.63;47.06
78315;SHT31;68596;52.080;4.662;2023-06-04T14:01:26;22.60;46.72
78315;SHT31;68596;52.080;4.662;2023-06-04T14:04:10;22.60;46.91
78315;SHT31;68596;52.080;4.662;2023-06-04T14:06:55;22.58;47.18
78315;SHT31;68596;52.080;4.662;2023-06-04T14:09:39;22.61;47.02
78315;SHT31;68596;52.080;4.662;2023-06-04T14:12:24;22.58;46.80
78315;SHT31;68596;52.080;4.662;2023-06-04T14:15:08;22.61;47.00
78315;SHT31;68596;52.080;4.662;2023-06-04T14:17:53;22.61;46.98
78315;SHT31;68596;52.080;4.662;2023-06-04T14:20:37;22.63;47.44
78315;SHT31;68596;52.080;4.662;2023-06-04T14:23:21;22.65;47.46
78315;SHT31;68596;52.080;4.662;2023-06-04T14:26:05;22.67;47.34
78315;SHT31;68596;52.080;4.662;2023-06-04T14:28:50;22.69;47.53
78315;SHT31;68596;52.080;4.662;2023-06-04T14:31:34;22.68;46.73
78315;SHT31;68596;52.080;4.662;2023-06-04T14:34:19;22.65;47.12
78315;SHT31;68596;52.080;4.662;2023-06-04T14:37:04;22.61;47.20
78315;SHT31;68596;52.080;4.662;2023-06-04T14:39:48;22.63;47.11
78315;SHT31;68596;52.080;4.662;2023-06-04T14:42:32;22.60;47.52
78315;SHT31;68596;52.080;4.662;2023-06-04T14:45:16;22.61;47.54
78315;SHT31;68596;52.080;4.662;2023-06-04T14:48:00;22.63;47.76
78315;SHT31;68596;52.080;4.662;2023-06-04T14:50:44;22.68;47.63
78315;SHT31;68596;52.080;4.662;2023-06-04T14:53:28;22.67;47.48
78315;SHT31;68596;52.080;4.662;2023-06-04T14:56:12;22.69;47.45
78315;SHT31;68596;52.080;4.662;2023-06-04T14:58:56;22.68;47.07
78315;SHT31;68596;52.080;4.662;2023-06-04T15:01:41;22.67;47.18
78315;SHT31;68596;52.080;4.662;2023-06-04T15:04:25;22.64;47.72
78315;SHT31;68596;52.080;4.662;2023-06-04T15:07:09;22.63;47.70
78315;SHT31;68596;52.080;4.662;2023-06-04T15:09:53;22.63;47.64
78315;SHT31;68596;52.080;4.662;2023-06-04T15:12:37;22.61;47.55
78315;SHT31;68596;52.080;4.662;2023-06-04T15:15:22;22.60;47.76
78315;SHT31;68596;52.080;4.662;2023-06-04T15:18:07;22.64;47.64
78315;SHT31;68596;52.080;4.662;2023-06-04T15:20:51;22.63;47.97
78315;SHT31;68596;52.080;4.662;2023-06-04T15:23:35;22.64;46.72
78315;SHT31;68596;52.080;4.662;2023-06-04T15:26:21;22.63;47.99
78315;SHT31;68596;52.080;4.662;2023-06-04T15:29:05;22.63;48.04
78315;SHT31;68596;52.080;4.662;2023-06-04T15:31:51;22.61;48.03
78315;SHT31;68596;52.080;4.662;2023-06-04T15:34:35;22.58;47.75
78315;SHT31;68596;52.080;4.662;2023-06-04T15:37:20;22.56;48.09
78315;SHT31;68596;52.080;4.662;2023-06-04T15:40:05;22.58;48.45
78315;SHT31;68596;52.080;4.662;2023-06-04T15:42:50;22.57;48.32
78315;SHT31;68596;52.080;4.662;2023-06-04T15:45:34;22.54;48.27
78315;SHT31;68596;52.080;4.662;2023-06-04T15:48:19;22.54;48.32
78315;SHT31;68596;52.080;4.662;2023-06-04T15:51:04;22.51;48.19
78315;SHT31;68596;52.080;4.662;2023-06-04T15:53:50;22.50;48.16
78315;SHT31;68596;52.080;4.662;2023-06-04T15:56:35;22.47;48.31
78315;SHT31;68596;52.080;4.662;2023-06-04T15:59:20;22.47;48.36
78315;SHT31;68596;52.080;4.662;2023-06-04T16:02:05;22.46;48.62
78315;SHT31;68596;52.080;4.662;2023-06-04T16:04:50;22.44;48.36
78315;SHT31;68596;52.080;4.662;2023-06-04T16:07:34;22.43;48.39
78315;SHT31;68596;52.080;4.662;2023-06-04T16:10:18;22.44;48.50
78315;SHT31;68596;52.080;4.662;2023-06-04T16:13:03;22.40;48.28
78315;SHT31;68596;52.080;4.662;2023-06-04T16:15:47;22.40;48.46
78315;SHT31;68596;52.080;4.662;2023-06-04T16:18:32;22.39;48.58
78315;SHT31;68596;52.080;4.662;2023-06-04T16:21:16;22.36;48.04
78315;SHT31;68596;52.080;4.662;2023-06-04T16:24:01;22.35;48.04
78315;SHT31;68596;52.080;4.662;2023-06-04T16:26:44;22.30;48.23
78315;SHT31;68596;52.080;4.662;2023-06-04T16:29:29;22.30;48.00
78315;SHT31;68596;52.080;4.662;2023-06-04T16:32:13;22.27;48.65
78315;SHT31;68596;52.080;4.662;2023-06-04T16:34:57;22.29;48.55
78315;SHT31;68596;52.080;4.662;2023-06-04T16:37:43;22.29;48.70
78315;SHT31;68596;52.080;4.662;2023-06-04T16:40:28;22.30;48.57
78315;SHT31;68596;52.080;4.662;2023-06-04T16:43:12;22.29;48.62
78315;SHT31;68596;52.080;4.662;2023-06-04T16:45:57;22.26;48.94
78315;SHT31;68596;52.080;4.662;2023-06-04T16:48:41;22.24;48.90
78315;SHT31;68596;52.080;4.662;2023-06-04T16:51:25;22.23;49.22
78315;SHT31;68596;52.080;4.662;2023-06-04T16:54:09;22.23;49.17
78315;SHT31;68596;52.080;4.662;2023-06-04T16:56:54;22.23;48.96
78315;SHT31;68596;52.080;4.662;2023-06-04T16:59:44;22.17;49.16
78315;SHT31;68596;52.080;4.662;2023-06-04T17:02:29;22.18;49.55
78315;SHT31;68596;52.080;4.662;2023-06-04T17:05:13;22.14;49.64
78315;SHT31;68596;52.080;4.662;2023-06-04T17:08:01;22.09;49.72
78315;SHT31;68596;52.080;4.662;2023-06-04T17:10:45;22.10;49.26
78315;SHT31;68596;52.080;4.662;2023-06-04T17:13:31;22.05;49.87
78315;SHT31;68596;52.080;4.662;2023-06-04T17:16:15;21.99;50.07
78315;SHT31;68596;52.080;4.662;2023-06-04T17:18:59;21.96;50.47
78315;SHT31;68596;52.080;4.662;2023-06-04T17:21:43;21.93;50.74
78315;SHT31;68596;52.080;4.662;2023-06-04T17:24:27;21.96;50.60
78315;SHT31;68596;52.080;4.662;2023-06-04T17:27:11;21.92;50.80
78315;SHT31;68596;52.080;4.662;2023-06-04T17:29:55;21.89;50.82